createdAt,value
2018-08-25T00:00:43.612Z,2.20
2018-08-25T00:03:12.717Z,2.73
2018-08-25T00:05:41.963Z,2.13
2018-08-25T00:08:11.423Z,2.40
2018-08-25T00:10:40.661Z,2.20
2018-08-25T00:13:09.751Z,3.20
2018-08-25T00:15:39.055Z,2.20
2018-08-25T00:18:09.873Z,3.20
2018-08-25T00:20:40.272Z,2.80
2018-08-25T00:23:09.454Z,2.27
2018-08-25T00:25:38.391Z,1.97
2018-08-25T00:28:07.421Z,2.27
2018-08-25T00:30:41.539Z,2.27
2018-08-25T00:33:10.780Z,1.90
2018-08-25T00:35:40.321Z,2.67
2018-08-25T00:38:09.408Z,2.03
2018-08-25T00:40:38.396Z,1.97
2018-08-25T00:43:07.564Z,3.67
2018-08-25T00:45:38.161Z,2.20
2018-08-25T00:48:07.583Z,1.73
2018-08-25T00:50:36.893Z,2.50
2018-08-25T00:53:05.952Z,2.37
2018-08-25T00:55:34.981Z,1.80
2018-08-25T00:58:04.274Z,2.20
2018-08-25T01:00:33.189Z,2.30
2018-08-25T01:03:02.293Z,2.33
2018-08-25T01:05:32.145Z,2.47
2018-08-25T01:08:01.265Z,2.37
2018-08-25T01:10:30.642Z,1.60
2018-08-25T01:12:59.740Z,1.93
2018-08-25T01:15:29.231Z,2.60
2018-08-25T01:17:58.186Z,2.43
2018-08-25T01:20:27.261Z,2.03
2018-08-25T01:22:56.284Z,1.90
2018-08-25T01:25:25.233Z,1.70
2018-08-25T01:27:54.726Z,2.00
2018-08-25T01:30:23.738Z,1.77
2018-08-25T01:32:53.015Z,2.93
2018-08-25T01:35:22.063Z,2.03
2018-08-25T01:37:51.114Z,2.20
2018-08-25T01:40:19.979Z,1.53
2018-08-25T01:42:49.329Z,1.80
2018-08-25T01:45:18.482Z,1.60
2018-08-25T01:47:47.522Z,2.17
2018-08-25T01:50:16.564Z,2.20
2018-08-25T01:52:45.653Z,2.07
2018-08-25T01:55:14.712Z,2.20
2018-08-25T01:57:43.813Z,2.00
2018-08-25T02:00:13.151Z,2.30
2018-08-25T02:02:42.232Z,2.20
2018-08-25T02:05:11.238Z,2.70
2018-08-25T02:07:40.284Z,2.23
2018-08-25T02:10:09.219Z,2.27
2018-08-25T02:12:38.242Z,2.50
2018-08-25T02:15:07.397Z,2.23
2018-08-25T02:17:36.851Z,2.30
2018-08-25T02:20:06.337Z,2.13
2018-08-25T02:22:35.289Z,2.20
2018-08-25T02:25:04.340Z,3.00
2018-08-25T02:27:33.584Z,2.60
2018-08-25T02:30:02.524Z,2.20
2018-08-25T02:32:31.575Z,2.70
2018-08-25T02:35:00.603Z,1.97
2018-08-25T02:37:29.623Z,2.27
2018-08-25T02:39:58.648Z,3.40
2018-08-25T02:42:27.704Z,2.60
2018-08-25T02:44:56.785Z,2.67
2018-08-25T02:47:25.753Z,2.87
2018-08-25T02:49:54.679Z,3.10
2018-08-25T02:52:23.865Z,2.90
2018-08-25T02:54:52.958Z,1.83
2018-08-25T02:57:21.959Z,2.40
2018-08-25T02:59:51.151Z,1.60
2018-08-25T03:02:20.174Z,2.47
2018-08-25T03:04:49.680Z,2.53
2018-08-25T03:07:19.065Z,2.80
2018-08-25T03:09:48.083Z,2.47
2018-08-25T03:12:17.045Z,2.20
2018-08-25T03:14:46.120Z,1.87
2018-08-25T03:17:15.069Z,2.37
2018-08-25T03:19:44.152Z,2.60
2018-08-25T03:22:13.112Z,1.83
2018-08-25T03:24:42.204Z,2.57
2018-08-25T03:27:11.286Z,2.10
2018-08-25T03:29:40.276Z,3.67
2018-08-25T03:32:09.164Z,2.30
2018-08-25T03:34:38.158Z,3.20
2018-08-25T03:37:07.199Z,3.47
2018-08-25T03:39:36.182Z,2.87
2018-08-25T03:42:05.251Z,3.27
2018-08-25T03:44:34.298Z,3.13
2018-08-25T03:47:03.316Z,3.00
2018-08-25T03:49:32.369Z,3.33
2018-08-25T03:52:01.372Z,3.53
2018-08-25T03:54:30.355Z,3.30
2018-08-25T03:56:59.326Z,2.10
2018-08-25T03:59:28.300Z,2.73
2018-08-25T04:01:57.328Z,2.90
2018-08-25T04:04:26.326Z,3.27
2018-08-25T04:06:55.196Z,2.17
2018-08-25T04:09:24.267Z,2.63
2018-08-25T04:11:53.336Z,3.43
2018-08-25T04:14:22.349Z,2.60
2018-08-25T04:16:51.356Z,3.00
2018-08-25T04:19:21.565Z,1.97
2018-08-25T04:21:51.135Z,3.13
2018-08-25T04:24:20.200Z,3.17
2018-08-25T04:26:49.167Z,2.77
2018-08-25T04:29:18.224Z,3.30
2018-08-25T04:31:47.303Z,3.40
2018-08-25T04:34:16.319Z,3.33
2018-08-25T04:36:45.277Z,3.63
2018-08-25T04:39:14.499Z,4.00
2018-08-25T04:41:43.524Z,3.60
2018-08-25T04:44:12.956Z,3.30
2018-08-25T04:46:41.994Z,4.20
2018-08-25T04:49:11.020Z,4.30
2018-08-25T04:51:40.118Z,4.57
2018-08-25T04:54:09.125Z,4.20
2018-08-25T04:56:38.204Z,4.70
2018-08-25T04:59:07.373Z,3.97
2018-08-25T05:01:36.364Z,4.80
2018-08-25T05:04:05.422Z,3.97
2018-08-25T05:06:34.412Z,4.13
2018-08-25T05:09:03.653Z,4.40
2018-08-25T05:11:32.690Z,5.90
2018-08-25T05:14:01.737Z,5.23
2018-08-25T05:16:30.803Z,5.67
2018-08-25T05:18:59.799Z,4.77
2018-08-25T05:21:28.842Z,3.83
2018-08-25T05:23:57.861Z,5.60
2018-08-25T05:26:26.924Z,6.13
2018-08-25T05:28:55.981Z,5.07
2018-08-25T05:31:25.045Z,5.20
2018-08-25T05:33:53.970Z,5.20
2018-08-25T05:36:23.037Z,7.23
2018-08-25T05:38:52.061Z,6.47
2018-08-25T05:41:21.067Z,5.37
2018-08-25T05:43:50.051Z,5.57
2018-08-25T05:46:19.101Z,7.53
2018-08-25T05:48:49.129Z,5.20
2018-08-25T05:51:18.365Z,5.40
2018-08-25T05:53:47.451Z,7.50
2018-08-25T05:56:16.525Z,6.30
2018-08-25T05:58:45.452Z,7.00
2018-08-25T06:01:14.565Z,5.60
2018-08-25T06:03:43.595Z,4.57
2018-08-25T06:06:12.719Z,7.87
2018-08-25T06:08:41.857Z,6.77
2018-08-25T06:11:10.793Z,6.90
2018-08-25T06:13:39.870Z,5.67
2018-08-25T06:16:09.275Z,7.53
2018-08-25T06:18:38.298Z,7.00
2018-08-25T06:21:07.607Z,7.00
2018-08-25T06:23:36.593Z,6.47
2018-08-25T06:26:05.672Z,7.10
2018-08-25T06:28:34.813Z,7.40
2018-08-25T06:31:03.866Z,5.90
2018-08-25T06:33:32.855Z,6.20
2018-08-25T06:36:01.913Z,5.43
2018-08-25T06:38:30.908Z,6.20
2018-08-25T06:41:00.031Z,5.00
2018-08-25T06:43:29.052Z,5.40
2018-08-25T06:46:03.206Z,4.03
2018-08-25T06:48:32.225Z,5.20
2018-08-25T06:51:01.605Z,3.93
2018-08-25T06:53:30.493Z,3.47
2018-08-25T06:55:59.546Z,4.07
2018-08-25T06:58:28.687Z,3.73
2018-08-25T07:00:57.772Z,4.10
2018-08-25T07:03:26.651Z,3.40
2018-08-25T07:05:55.906Z,2.60
2018-08-25T07:08:24.798Z,2.67
2018-08-25T07:10:54.482Z,3.53
2018-08-25T07:13:23.527Z,3.30
2018-08-25T07:15:52.673Z,2.50
2018-08-25T07:18:21.781Z,2.67
2018-08-25T07:20:50.894Z,2.67
2018-08-25T07:23:19.796Z,2.60
2018-08-25T07:25:49.670Z,4.13
2018-08-25T07:28:18.740Z,3.60
2018-08-25T07:30:48.087Z,3.67
2018-08-25T07:33:17.813Z,3.83
2018-08-25T07:35:47.393Z,2.97
2018-08-25T07:38:16.872Z,3.40
2018-08-25T07:40:46.307Z,3.03
2018-08-25T07:43:15.752Z,2.30
2018-08-25T07:45:45.021Z,2.67
2018-08-25T07:48:14.169Z,2.57
2018-08-25T07:50:44.121Z,2.20
2018-08-25T07:53:14.153Z,2.83
2018-08-25T07:55:43.429Z,2.43
2018-08-25T07:58:12.462Z,2.23
2018-08-25T08:00:41.433Z,4.03
2018-08-25T08:03:12.239Z,1.97
2018-08-25T08:05:41.359Z,2.23
2018-08-25T08:08:10.428Z,2.93
2018-08-25T08:10:39.463Z,4.00
2018-08-25T08:13:08.616Z,3.47
2018-08-25T08:15:37.787Z,4.27
2018-08-25T08:18:06.942Z,3.83
2018-08-25T08:20:35.909Z,4.90
2018-08-25T08:23:04.965Z,3.57
2018-08-25T08:25:34.066Z,5.33
2018-08-25T08:28:03.197Z,3.50
2018-08-25T08:30:32.198Z,3.77
2018-08-25T08:33:01.654Z,2.90
2018-08-25T08:35:30.701Z,2.70
2018-08-25T08:37:59.908Z,2.97
2018-08-25T08:40:29.208Z,3.10
2018-08-25T08:42:58.404Z,3.17
2018-08-25T08:45:27.446Z,3.47
2018-08-25T08:47:57.566Z,2.93
2018-08-25T08:50:26.624Z,3.57
2018-08-25T08:52:55.757Z,4.10
2018-08-25T08:55:24.681Z,3.80
2018-08-25T08:57:53.749Z,2.13
2018-08-25T09:00:22.757Z,3.73
2018-08-25T09:02:52.153Z,3.90
2018-08-25T09:05:21.224Z,4.17
2018-08-25T09:07:50.646Z,3.93
2018-08-25T09:10:19.734Z,3.30
2018-08-25T09:12:48.825Z,3.23
2018-08-25T09:15:18.271Z,3.50
2018-08-25T09:17:47.447Z,3.43
2018-08-25T09:20:16.519Z,3.77
2018-08-25T09:22:45.667Z,4.77
2018-08-25T09:25:14.901Z,4.40
2018-08-25T09:27:44.110Z,2.87
2018-08-25T09:30:13.387Z,4.40
2018-08-25T09:32:42.593Z,3.60
2018-08-25T09:35:11.947Z,2.90
2018-08-25T09:37:41.117Z,1.87
2018-08-25T09:40:10.441Z,2.50
2018-08-25T09:42:40.367Z,2.90
2018-08-25T09:45:09.629Z,2.20
2018-08-25T09:47:39.324Z,2.87
2018-08-25T09:50:12.905Z,2.30
2018-08-25T09:52:42.065Z,2.23
2018-08-25T09:55:11.755Z,1.83
2018-08-25T09:57:40.926Z,1.40
2018-08-25T10:00:11.365Z,1.83
2018-08-25T10:02:40.921Z,1.73
2018-08-25T10:05:10.229Z,1.83
2018-08-25T10:07:40.458Z,0.90
2018-08-25T10:10:10.417Z,2.00
2018-08-25T10:12:39.702Z,1.57
2018-08-25T10:15:09.747Z,1.33
2018-08-25T10:17:39.898Z,1.77
2018-08-25T10:20:10.269Z,1.33
2018-08-25T10:22:39.400Z,1.10
2018-08-25T10:25:08.877Z,1.07
2018-08-25T10:27:38.106Z,1.80
2018-08-25T10:30:08.342Z,1.50
2018-08-25T10:32:37.487Z,1.40
2018-08-25T10:35:06.761Z,1.17
2018-08-25T10:37:36.172Z,1.20
2018-08-25T10:40:05.529Z,1.23
2018-08-25T10:42:34.770Z,1.73
2018-08-25T10:45:04.211Z,1.20
2018-08-25T10:47:33.621Z,1.57
2018-08-25T10:50:02.931Z,1.00
2018-08-25T10:52:32.117Z,1.20
2018-08-25T10:55:01.994Z,1.43
2018-08-25T10:57:31.455Z,1.13
2018-08-25T11:00:00.852Z,1.30
2018-08-25T11:02:30.113Z,1.10
2018-08-25T11:04:59.461Z,1.63
2018-08-25T11:07:28.706Z,1.53
2018-08-25T11:10:01.892Z,1.67
2018-08-25T11:12:31.102Z,1.30
2018-08-25T11:15:02.533Z,1.00
2018-08-25T11:17:32.123Z,1.30
2018-08-25T11:20:01.314Z,1.00
2018-08-25T11:22:30.590Z,1.47
2018-08-25T11:25:00.281Z,1.17
2018-08-25T11:27:29.914Z,1.37
2018-08-25T11:30:03.339Z,1.03
2018-08-25T11:32:32.776Z,1.00
2018-08-25T11:35:02.727Z,1.30
2018-08-25T11:37:32.365Z,1.07
2018-08-25T11:40:06.559Z,1.60
2018-08-25T11:42:35.854Z,1.70
2018-08-25T11:45:06.446Z,1.97
2018-08-25T11:47:36.152Z,1.50
2018-08-25T11:50:06.099Z,1.57
2018-08-25T11:52:35.909Z,1.60
2018-08-25T11:55:08.558Z,1.67
2018-08-25T11:57:37.845Z,1.50
2018-08-25T12:00:10.417Z,1.13
2018-08-25T12:02:39.993Z,1.20
2018-08-25T12:05:09.757Z,1.53
2018-08-25T12:07:39.001Z,1.40
2018-08-25T12:10:10.317Z,1.90
2018-08-25T12:12:39.534Z,1.50
2018-08-25T12:15:09.070Z,1.13
2018-08-25T12:17:38.635Z,1.87
2018-08-25T12:20:08.026Z,1.33
2018-08-25T12:22:37.898Z,1.63
2018-08-25T12:25:07.962Z,2.00
2018-08-25T12:27:37.406Z,2.00
2018-08-25T12:30:07.797Z,1.90
2018-08-25T12:32:38.297Z,2.10
2018-08-25T12:35:07.914Z,1.77
2018-08-25T12:37:37.848Z,1.40
2018-08-25T12:40:07.443Z,1.43
2018-08-25T12:42:36.613Z,1.97
2018-08-25T12:45:06.029Z,1.97
2018-08-25T12:47:35.754Z,1.60
2018-08-25T12:50:06.063Z,2.10
2018-08-25T12:52:35.279Z,2.10
2018-08-25T12:55:04.540Z,1.97
2018-08-25T12:57:34.035Z,2.90
2018-08-25T13:00:04.526Z,2.37
2018-08-25T13:02:33.859Z,2.60
2018-08-25T13:05:03.055Z,2.23
2018-08-25T13:07:32.424Z,2.07
2018-08-25T13:10:01.641Z,2.40
2018-08-25T13:12:31.337Z,2.00
2018-08-25T13:15:00.533Z,1.47
2018-08-25T13:17:29.722Z,1.60
2018-08-25T13:19:58.854Z,1.57
2018-08-25T13:22:28.458Z,1.90
2018-08-25T13:24:57.684Z,2.00
2018-08-25T13:27:26.895Z,1.50
2018-08-25T13:29:56.126Z,1.80
2018-08-25T13:32:25.391Z,2.57
2018-08-25T13:34:54.554Z,2.07
2018-08-25T13:37:23.725Z,2.23
2018-08-25T13:39:52.934Z,2.30
2018-08-25T13:42:22.217Z,2.50
2018-08-25T13:44:51.926Z,2.00
2018-08-25T13:47:21.568Z,2.70
2018-08-25T13:49:50.678Z,3.40
2018-08-25T13:52:20.043Z,3.03
2018-08-25T13:54:49.242Z,2.83
2018-08-25T13:57:18.497Z,1.93
2018-08-25T13:59:47.593Z,2.37
2018-08-25T14:02:16.797Z,2.47
2018-08-25T14:04:45.970Z,1.83
2018-08-25T14:07:15.475Z,1.80
2018-08-25T14:09:45.017Z,1.80
2018-08-25T14:12:14.273Z,2.50
2018-08-25T14:14:43.371Z,1.63
2018-08-25T14:17:12.689Z,1.60
2018-08-25T14:19:41.924Z,2.90
2018-08-25T14:22:11.129Z,2.70
2018-08-25T14:24:40.388Z,2.27
2018-08-25T14:27:09.573Z,2.10
2018-08-25T14:29:39.195Z,1.50
2018-08-25T14:32:08.408Z,1.37
2018-08-25T14:34:37.529Z,1.70
2018-08-25T14:37:07.237Z,1.60
2018-08-25T14:39:36.994Z,2.40
2018-08-25T14:42:06.530Z,2.13
2018-08-25T14:44:35.770Z,2.00
2018-08-25T14:47:05.095Z,1.27
2018-08-25T14:49:34.322Z,1.33
2018-08-25T14:52:03.582Z,1.37
2018-08-25T14:54:32.903Z,1.50
2018-08-25T14:57:02.039Z,1.43
2018-08-25T14:59:31.357Z,1.30
2018-08-25T15:02:00.501Z,1.57
2018-08-25T15:04:29.708Z,1.73
2018-08-25T15:06:58.893Z,1.50
2018-08-25T15:09:28.186Z,1.70
2018-08-25T15:11:57.605Z,1.80
2018-08-25T15:14:26.825Z,1.83
2018-08-25T15:16:56.497Z,1.57
2018-08-25T15:19:26.542Z,1.63
2018-08-25T15:21:56.067Z,2.00
2018-08-25T15:24:25.293Z,2.10
2018-08-25T15:26:56.337Z,1.60
2018-08-25T15:29:25.641Z,1.77
2018-08-25T15:31:54.813Z,2.17
2018-08-25T15:34:24.319Z,2.03
2018-08-25T15:36:53.877Z,1.70
2018-08-25T15:39:23.458Z,1.53
2018-08-25T15:41:53.215Z,2.70
2018-08-25T15:44:22.531Z,1.70
2018-08-25T15:46:56.258Z,2.40
2018-08-25T15:49:25.894Z,1.30
2018-08-25T15:51:56.557Z,2.00
2018-08-25T15:54:26.623Z,1.90
2018-08-25T15:56:56.546Z,1.03
2018-08-25T15:59:26.307Z,1.57
2018-08-25T16:01:56.699Z,1.60
2018-08-25T16:04:26.521Z,1.10
2018-08-25T16:06:56.434Z,1.10
2018-08-25T16:09:31.561Z,0.90
2018-08-25T16:12:00.816Z,1.43
2018-08-25T16:14:30.374Z,1.13
2018-08-25T16:17:00.342Z,1.23
2018-08-25T16:19:29.957Z,1.20
2018-08-25T16:21:59.379Z,1.57
2018-08-25T16:24:29.105Z,1.13
2018-08-25T16:26:58.644Z,1.13
2018-08-25T16:29:28.139Z,1.37
2018-08-25T16:31:57.405Z,1.53
2018-08-25T16:34:26.648Z,1.60
2018-08-25T16:36:55.809Z,1.60
2018-08-25T16:39:25.092Z,1.30
2018-08-25T16:41:54.222Z,1.43
2018-08-25T16:44:23.474Z,1.80
2018-08-25T16:46:52.824Z,1.97
2018-08-25T16:49:21.995Z,2.03
2018-08-25T16:51:51.263Z,1.67
2018-08-25T16:54:20.518Z,1.47
2018-08-25T16:56:49.682Z,1.30
2018-08-25T16:59:18.954Z,1.73
2018-08-25T17:01:48.097Z,1.40
2018-08-25T17:04:17.369Z,1.27
2018-08-25T17:06:46.651Z,1.27
2018-08-25T17:09:15.886Z,1.43
2018-08-25T17:11:45.033Z,2.23
2018-08-25T17:14:14.298Z,1.63
2018-08-25T17:16:43.569Z,1.57
2018-08-25T17:19:13.206Z,1.70
2018-08-25T17:21:42.369Z,1.53
2018-08-25T17:24:12.094Z,1.40
2018-08-25T17:26:41.454Z,1.50
2018-08-25T17:29:10.637Z,1.60
2018-08-25T17:31:41.197Z,1.77
2018-08-25T17:34:10.764Z,1.23
2018-08-25T17:36:40.199Z,1.47
2018-08-25T17:39:11.327Z,1.60
2018-08-25T17:41:41.021Z,1.43
2018-08-25T17:44:10.379Z,1.30
2018-08-25T17:46:39.562Z,1.57
2018-08-25T17:49:08.670Z,1.77
2018-08-25T17:51:37.723Z,1.90
2018-08-25T17:54:06.962Z,1.33
2018-08-25T17:56:36.143Z,1.10
2018-08-25T17:59:05.634Z,1.83
2018-08-25T18:01:37.753Z,1.47
2018-08-25T18:04:06.872Z,1.57
2018-08-25T18:06:36.033Z,1.50
2018-08-25T18:09:06.014Z,1.53
2018-08-25T18:11:35.119Z,1.73
2018-08-25T18:14:04.277Z,2.47
2018-08-25T18:16:33.452Z,1.77
2018-08-25T18:19:02.678Z,1.60
2018-08-25T18:21:31.914Z,2.30
2018-08-25T18:24:00.968Z,2.53
2018-08-25T18:26:30.199Z,1.80
2018-08-25T18:28:59.370Z,1.47
2018-08-25T18:31:28.462Z,1.50
2018-08-25T18:33:57.512Z,2.07
2018-08-25T18:36:26.578Z,1.57
2018-08-25T18:38:55.691Z,1.77
2018-08-25T18:41:24.966Z,1.83
2018-08-25T18:43:54.122Z,1.90
2018-08-25T18:46:23.298Z,1.70
2018-08-25T18:48:52.399Z,1.60
2018-08-25T18:51:21.645Z,2.00
2018-08-25T18:53:50.847Z,1.80
2018-08-25T18:56:20.034Z,1.40
2018-08-25T18:58:49.193Z,1.77
2018-08-25T19:01:18.477Z,2.33
2018-08-25T19:03:47.758Z,1.83
2018-08-25T19:06:17.092Z,2.03
2018-08-25T19:08:46.425Z,2.57
2018-08-25T19:11:15.799Z,1.40
2018-08-25T19:13:45.117Z,1.77
2018-08-25T19:16:14.286Z,2.10
2018-08-25T19:18:43.460Z,1.67
2018-08-25T19:21:12.673Z,2.13
2018-08-25T19:23:41.894Z,1.60
2018-08-25T19:26:11.268Z,1.70
2018-08-25T19:28:40.410Z,1.60
2018-08-25T19:31:09.799Z,2.53
2018-08-25T19:33:38.875Z,1.40
2018-08-25T19:36:08.018Z,1.97
2018-08-25T19:38:37.252Z,1.90
2018-08-25T19:41:06.929Z,2.00
2018-08-25T19:43:36.063Z,1.70
2018-08-25T19:46:05.421Z,1.33
2018-08-25T19:48:34.681Z,1.60
2018-08-25T19:51:03.948Z,2.13
2018-08-25T19:53:33.114Z,2.10
2018-08-25T19:56:02.590Z,2.10
2018-08-25T19:58:31.674Z,1.70
2018-08-25T20:01:00.820Z,2.10
2018-08-25T20:03:29.977Z,1.97
2018-08-25T20:05:59.007Z,2.10
2018-08-25T20:08:28.118Z,1.50
2018-08-25T20:10:57.419Z,1.97
2018-08-25T20:13:26.511Z,1.70
2018-08-25T20:15:55.634Z,1.87
2018-08-25T20:18:24.672Z,1.63
2018-08-25T20:20:53.792Z,1.87
2018-08-25T20:23:22.957Z,1.23
2018-08-25T20:25:52.294Z,2.00
2018-08-25T20:28:21.567Z,1.80
2018-08-25T20:30:50.781Z,1.53
2018-08-25T20:33:19.978Z,1.67
2018-08-25T20:35:49.224Z,1.73
2018-08-25T20:38:18.500Z,1.60
2018-08-25T20:40:47.565Z,1.90
2018-08-25T20:43:16.818Z,1.60
2018-08-25T20:45:45.997Z,1.20
2018-08-25T20:48:15.047Z,2.10
2018-08-25T20:50:44.439Z,2.03
2018-08-25T20:53:13.530Z,1.30
2018-08-25T20:55:42.777Z,1.70
2018-08-25T20:58:12.017Z,1.63
2018-08-25T21:00:41.220Z,1.37
2018-08-25T21:03:10.277Z,1.83
2018-08-25T21:05:39.397Z,2.07
2018-08-25T21:08:08.614Z,1.70
2018-08-25T21:10:37.802Z,2.57
2018-08-25T21:13:06.937Z,2.33
2018-08-25T21:15:36.049Z,2.27
2018-08-25T21:18:05.211Z,2.57
2018-08-25T21:20:34.206Z,2.30
2018-08-25T21:23:03.471Z,1.97
2018-08-25T21:25:32.519Z,1.80
2018-08-25T21:28:01.692Z,1.67
2018-08-25T21:30:30.801Z,2.20
2018-08-25T21:33:00.944Z,1.90
2018-08-25T21:35:30.060Z,2.17
2018-08-25T21:37:59.161Z,2.30
2018-08-25T21:40:28.385Z,1.83
2018-08-25T21:42:57.757Z,2.97
2018-08-25T21:45:26.852Z,2.50
2018-08-25T21:47:56.108Z,3.50
2018-08-25T21:50:25.373Z,2.83
2018-08-25T21:52:54.563Z,2.53
2018-08-25T21:55:23.893Z,2.80
2018-08-25T21:57:52.961Z,2.53
2018-08-25T22:00:22.092Z,1.93
2018-08-25T22:02:51.246Z,2.60
2018-08-25T22:05:20.314Z,3.07
2018-08-25T22:07:49.503Z,3.07
2018-08-25T22:10:18.718Z,2.57
2018-08-25T22:12:47.892Z,3.30
2018-08-25T22:15:17.028Z,2.57
2018-08-25T22:17:46.676Z,4.13
2018-08-25T22:20:15.751Z,2.67
2018-08-25T22:22:44.957Z,2.83
2018-08-25T22:25:14.143Z,2.77
2018-08-25T22:27:43.362Z,3.70
2018-08-25T22:30:12.557Z,2.80
2018-08-25T22:32:41.766Z,4.10
2018-08-25T22:35:10.877Z,3.40
2018-08-25T22:37:39.978Z,3.20
2018-08-25T22:40:09.736Z,2.57
2018-08-25T22:42:38.744Z,2.60
2018-08-25T22:45:08.322Z,3.47
2018-08-25T22:47:37.479Z,3.80
2018-08-25T22:50:06.742Z,2.63
2018-08-25T22:52:41.034Z,2.60
2018-08-25T22:55:10.120Z,3.37
2018-08-25T22:57:39.263Z,3.40
2018-08-25T23:00:08.359Z,3.97
2018-08-25T23:02:40.833Z,3.00
2018-08-25T23:05:10.260Z,2.93
2018-08-25T23:07:39.809Z,4.10
2018-08-25T23:10:09.097Z,3.80
2018-08-25T23:12:38.119Z,3.53
2018-08-25T23:15:07.544Z,4.37
2018-08-25T23:17:36.723Z,4.70
2018-08-25T23:20:06.052Z,3.83
2018-08-25T23:22:35.184Z,4.03
2018-08-25T23:25:04.515Z,3.93
2018-08-25T23:27:34.148Z,4.50
2018-08-25T23:30:03.324Z,3.27
2018-08-25T23:32:32.397Z,4.60
2018-08-25T23:35:01.518Z,4.60
2018-08-25T23:37:30.643Z,3.77
2018-08-25T23:39:59.864Z,4.53
2018-08-25T23:42:29.102Z,3.83
2018-08-25T23:44:58.570Z,3.93
2018-08-25T23:47:27.725Z,5.70
2018-08-25T23:49:57.092Z,3.90
2018-08-25T23:52:26.137Z,4.40
2018-08-25T23:54:55.342Z,5.40
2018-08-25T23:57:24.453Z,5.80
2018-08-25T23:59:53.713Z,4.67
